sensor_id;sensor_type;location;lat;lon;timestamp;pressure;altitude;pressure_sealevel;temperature;humidity
32875;BME280;40468;42.128;24.750;2023-02-22T00:00:01;99450.09;;;14.20;30.46
32875;BME280;40468;42.128;24.750;2023-02-22T00:01:38;99447.38;;;14.21;30.56
32875;BME280;40468;42.128;24.750;2023-02-22T00:03:20;99449.03;;;14.22;30.37
32875;BME280;40468;42.128;24.750;2023-02-22T00:04:54;99451.47;;;14.25;30.48
32875;BME280;40468;42.128;24.750;2023-02-22T00:06:25;99451.38;;;14.27;30.21
32875;BME280;40468;42.128;24.750;2023-02-22T00:07:57;99457.44;;;14.27;30.36
32875;BME280;40468;42.128;24.750;2023-02-22T00:09:31;99454.00;;;14.27;30.31
32875;BME280;40468;42.128;24.750;2023-02-22T00:11:04;99457.34;;;14.29;30.33
32875;BME280;40468;42.128;24.750;2023-02-22T00:12:38;99466.06;;;14.29;30.54
32875;BME280;40468;42.128;24.750;2023-02-22T00:14:09;99456.28;;;14.31;30.31
32875;BME280;40468;42.128;24.750;2023-02-22T00:15:41;99468.34;;;14.34;30.47
32875;BME280;40468;42.128;24.750;2023-02-22T00:17:14;99456.13;;;14.34;30.22
32875;BME280;40468;42.128;24.750;2023-02-22T00:18:46;99461.34;;;14.34;30.40
32875;BME280;40468;42.128;24.750;2023-02-22T00:20:18;99465.53;;;14.37;30.30
32875;BME280;40468;42.128;24.750;2023-02-22T00:21:50;99462.91;;;14.37;30.32
32875;BME280;40468;42.128;24.750;2023-02-22T00:23:22;99463.78;;;14.38;30.34
32875;BME280;40468;42.128;24.750;2023-02-22T00:24:57;99459.38;;;14.38;30.27
32875;BME280;40468;42.128;24.750;2023-02-22T00:26:27;99467.09;;;14.40;30.23
32875;BME280;40468;42.128;24.750;2023-02-22T00:28:03;99464.50;;;14.40;30.32
32875;BME280;40468;42.128;24.750;2023-02-22T00:29:35;99467.03;;;14.41;30.43
32875;BME280;40468;42.128;24.750;2023-02-22T00:31:06;99461.78;;;14.41;30.51
32875;BME280;40468;42.128;24.750;2023-02-22T00:32:38;99452.22;;;14.40;30.39
32875;BME280;40468;42.128;24.750;2023-02-22T00:34:10;99463.56;;;14.41;30.42
32875;BME280;40468;42.128;24.750;2023-02-22T00:35:40;99455.59;;;14.42;30.25
32875;BME280;40468;42.128;24.750;2023-02-22T00:37:14;99452.97;;;14.42;30.24
32875;BME280;40468;42.128;24.750;2023-02-22T00:38:46;99456.34;;;14.44;30.40
32875;BME280;40468;42.128;24.750;2023-02-22T00:40:20;99458.00;;;14.45;30.15
32875;BME280;40468;42.128;24.750;2023-02-22T00:41:52;99462.28;;;14.46;30.32
32875;BME280;40468;42.128;24.750;2023-02-22T00:43:23;99457.06;;;14.46;30.32
32875;BME280;40468;42.128;24.750;2023-02-22T00:44:55;99449.31;;;14.45;30.31
32875;BME280;40468;42.128;24.750;2023-02-22T00:46:26;99447.53;;;14.45;30.35
32875;BME280;40468;42.128;24.750;2023-02-22T00:47:57;99453.59;;;14.46;30.36
32875;BME280;40468;42.128;24.750;2023-02-22T00:49:29;99450.91;;;14.47;30.09
32875;BME280;40468;42.128;24.750;2023-02-22T00:51:01;99460.53;;;14.47;30.41
32875;BME280;40468;42.128;24.750;2023-02-22T00:52:32;99459.66;;;14.46;30.29
32875;BME280;40468;42.128;24.750;2023-02-22T00:54:05;99456.22;;;14.46;30.25
32875;BME280;40468;42.128;24.750;2023-02-22T00:55:38;99456.22;;;14.46;30.48
32875;BME280;40468;42.128;24.750;2023-02-22T00:57:09;99461.47;;;14.46;30.59
32875;BME280;40468;42.128;24.750;2023-02-22T00:58:41;99461.47;;;14.46;30.54
32875;BME280;40468;42.128;24.750;2023-02-22T01:00:15;99463.16;;;14.47;30.58
32875;BME280;40468;42.128;24.750;2023-02-22T01:01:46;99469.31;;;14.46;30.29
32875;BME280;40468;42.128;24.750;2023-02-22T01:03:18;99470.16;;;14.46;30.42
32875;BME280;40468;42.128;24.750;2023-02-22T01:04:49;99471.09;;;14.45;30.56
32875;BME280;40468;42.128;24.750;2023-02-22T01:06:20;99473.63;;;14.47;30.44
32875;BME280;40468;42.128;24.750;2023-02-22T01:07:53;99467.53;;;14.46;30.58
32875;BME280;40468;42.128;24.750;2023-02-22T01:09:24;99471.03;;;14.47;30.63
32875;BME280;40468;42.128;24.750;2023-02-22T01:10:57;99468.41;;;14.47;30.53
32875;BME280;40468;42.128;24.750;2023-02-22T01:12:29;99469.13;;;14.49;30.38
32875;BME280;40468;42.128;24.750;2023-02-22T01:14:01;99472.47;;;14.51;30.27
32875;BME280;40468;42.128;24.750;2023-02-22T01:15:33;99468.84;;;14.53;30.34
32875;BME280;40468;42.128;24.750;2023-02-22T01:17:04;99467.06;;;14.54;30.48
32875;BME280;40468;42.128;24.750;2023-02-22T01:18:36;99459.38;;;14.51;30.54
32875;BME280;40468;42.128;24.750;2023-02-22T01:20:08;99463.03;;;14.48;30.68
32875;BME280;40468;42.128;24.750;2023-02-22T01:21:41;99466.69;;;14.46;30.80
32875;BME280;40468;42.128;24.750;2023-02-22T01:23:13;99465.03;;;14.45;30.91
32875;BME280;40468;42.128;24.750;2023-02-22T01:24:44;99456.44;;;14.43;30.71
32875;BME280;40468;42.128;24.750;2023-02-22T01:26:17;99456.63;;;14.40;30.74
32875;BME280;40468;42.128;24.750;2023-02-22T01:27:49;99455.91;;;14.38;30.75
32875;BME280;40468;42.128;24.750;2023-02-22T01:29:21;99459.56;;;14.35;31.03
32875;BME280;40468;42.128;24.750;2023-02-22T01:30:52;99453.66;;;14.31;30.89
32875;BME280;40468;42.128;24.750;2023-02-22T01:32:25;99454.75;;;14.29;31.09
32875;BME280;40468;42.128;24.750;2023-02-22T01:33:55;99450.53;;;14.26;30.98
32875;BME280;40468;42.128;24.750;2023-02-22T01:35:29;99458.59;;;14.23;30.99
32875;BME280;40468;42.128;24.750;2023-02-22T01:37:00;99448.41;;;14.19;31.02
32875;BME280;40468;42.128;24.750;2023-02-22T01:38:31;99453.00;;;14.15;31.42
32875;BME280;40468;42.128;24.750;2023-02-22T01:40:04;99441.78;;;14.13;31.17
32875;BME280;40468;42.128;24.750;2023-02-22T01:41:38;99451.56;;;14.11;31.21
32875;BME280;40468;42.128;24.750;2023-02-22T01:43:17;99454.16;;;14.11;31.48
32875;BME280;40468;42.128;24.750;2023-02-22T01:46:36;99444.63;;;14.10;31.50
32875;BME280;40468;42.128;24.750;2023-02-22T01:48:08;99445.44;;;14.10;31.29
32875;BME280;40468;42.128;24.750;2023-02-22T01:49:41;99439.38;;;14.10;31.24
32875;BME280;40468;42.128;24.750;2023-02-22T01:51:15;99446.31;;;14.11;31.25
32875;BME280;40468;42.128;24.750;2023-02-22T01:52:48;99441.91;;;14.11;31.27
32875;BME280;40468;42.128;24.750;2023-02-22T01:54:20;99434.78;;;14.14;31.50
32875;BME280;40468;42.128;24.750;2023-02-22T01:55:54;99441.72;;;14.15;31.18
32875;BME280;40468;42.128;24.750;2023-02-22T01:57:27;99443.19;;;14.19;31.26
32875;BME280;40468;42.128;24.750;2023-02-22T01:59:00;99441.31;;;14.21;31.13
32875;BME280;40468;42.128;24.750;2023-02-22T02:00:32;99440.25;;;14.23;31.20
32875;BME280;40468;42.128;24.750;2023-02-22T02:02:03;99444.47;;;14.26;31.14
32875;BME280;40468;42.128;24.750;2023-02-22T02:03:36;99439.94;;;14.28;31.30
32875;BME280;40468;42.128;24.750;2023-02-22T02:05:10;99446.75;;;14.30;30.97
32875;BME280;40468;42.128;24.750;2023-02-22T02:06:42;99444.91;;;14.32;30.92
32875;BME280;40468;42.128;24.750;2023-02-22T02:08:18;99443.03;;;14.34;30.95
32875;BME280;40468;42.128;24.750;2023-02-22T02:09:51;99442.06;;;14.36;30.87
32875;BME280;40468;42.128;24.750;2023-02-22T02:11:24;99448.16;;;14.36;30.82
32875;BME280;40468;42.128;24.750;2023-02-22T02:12:57;99441.13;;;14.37;30.96
32875;BME280;40468;42.128;24.750;2023-02-22T02:14:29;99440.41;;;14.34;30.93
32875;BME280;40468;42.128;24.750;2023-02-22T02:16:02;99443.84;;;14.35;31.24
32875;BME280;40468;42.128;24.750;2023-02-22T02:17:32;99443.94;;;14.33;31.10
32875;BME280;40468;42.128;24.750;2023-02-22T02:19:07;99437.97;;;14.31;30.95
32875;BME280;40468;42.128;24.750;2023-02-22T02:20:43;99445.81;;;14.31;30.95
32875;BME280;40468;42.128;24.750;2023-02-22T02:22:29;99444.06;;;14.32;31.11
32875;BME280;40468;42.128;24.750;2023-02-22T02:26:00;99456.28;;;14.31;30.93
32875;BME280;40468;42.128;24.750;2023-02-22T02:27:45;99452.84;;;14.31;30.96
32875;BME280;40468;42.128;24.750;2023-02-22T02:29:29;99450.34;;;14.29;31.12
32875;BME280;40468;42.128;24.750;2023-02-22T02:31:14;99447.91;;;14.26;31.10
32875;BME280;40468;42.128;24.750;2023-02-22T02:32:54;99452.00;;;14.30;31.08
32875;BME280;40468;42.128;24.750;2023-02-22T02:34:28;99453.88;;;14.28;31.19
32875;BME280;40468;42.128;24.750;2023-02-22T02:36:02;99463.22;;;14.32;30.84
32875;BME280;40468;42.128;24.750;2023-02-22T02:37:40;99472.00;;;14.31;30.78
32875;BME280;40468;42.128;24.750;2023-02-22T02:39:15;99467.63;;;14.32;30.86
32875;BME280;40468;42.128;24.750;2023-02-22T02:40:51;99463.44;;;14.29;30.85
32875;BME280;40468;42.128;24.750;2023-02-22T02:42:27;99460.91;;;14.28;30.85
32875;BME280;40468;42.128;24.750;2023-02-22T02:44:01;99460.25;;;14.24;30.98
32875;BME280;40468;42.128;24.750;2023-02-22T02:45:35;99465.72;;;14.21;31.21
32875;BME280;40468;42.128;24.750;2023-02-22T02:47:09;99466.75;;;14.19;30.93
32875;BME280;40468;42.128;24.750;2023-02-22T02:48:45;99465.16;;;14.16;30.96
32875;BME280;40468;42.128;24.750;2023-02-22T02:50:20;99468.94;;;14.12;31.22
32875;BME280;40468;42.128;24.750;2023-02-22T02:51:53;99463.91;;;14.09;31.09
32875;BME280;40468;42.128;24.750;2023-02-22T02:53:26;99457.81;;;14.08;31.13
32875;BME280;40468;42.128;24.750;2023-02-22T02:55:01;99465.75;;;14.07;31.05
32875;BME280;40468;42.128;24.750;2023-02-22T02:56:32;99461.56;;;14.04;31.29
32875;BME280;40468;42.128;24.750;2023-02-22T02:58:05;99466.91;;;14.03;31.17
32875;BME280;40468;42.128;24.750;2023-02-22T02:59:36;99460.84;;;14.02;31.32
32875;BME280;40468;42.128;24.750;2023-02-22T03:01:07;99467.81;;;14.02;31.08
32875;BME280;40468;42.128;24.750;2023-02-22T03:02:42;99473.06;;;14.02;31.10
32875;BME280;40468;42.128;24.750;2023-02-22T03:04:25;99468.78;;;14.01;31.01
32875;BME280;40468;42.128;24.750;2023-02-22T03:06:04;99465.53;;;13.97;31.05
32875;BME280;40468;42.128;24.750;2023-02-22T03:07:43;99460.38;;;13.96;31.06
32875;BME280;40468;42.128;24.750;2023-02-22T03:09:19;99468.22;;;13.96;31.25
32875;BME280;40468;42.128;24.750;2023-02-22T03:10:58;99475.16;;;13.97;31.01
32875;BME280;40468;42.128;24.750;2023-02-22T03:12:35;99470.66;;;13.99;31.22
32875;BME280;40468;42.128;24.750;2023-02-22T03:14:10;99482.81;;;14.00;30.77
32875;BME280;40468;42.128;24.750;2023-02-22T03:15:43;99480.19;;;14.00;30.89
32875;BME280;40468;42.128;24.750;2023-02-22T03:17:22;99483.66;;;14.00;31.05
32875;BME280;40468;42.128;24.750;2023-02-22T03:19:00;99475.88;;;13.99;30.69
32875;BME280;40468;42.128;24.750;2023-02-22T03:20:40;99476.84;;;13.98;30.74
32875;BME280;40468;42.128;24.750;2023-02-22T03:22:13;99484.88;;;13.95;31.01
32875;BME280;40468;42.128;24.750;2023-02-22T03:23:47;99485.09;;;13.92;31.08
32875;BME280;40468;42.128;24.750;2023-02-22T03:25:21;99487.91;;;13.88;31.09
32875;BME280;40468;42.128;24.750;2023-02-22T03:26:57;99481.28;;;13.83;31.19
32875;BME280;40468;42.128;24.750;2023-02-22T03:28:31;99492.78;;;13.80;31.16
32875;BME280;40468;42.128;24.750;2023-02-22T03:30:06;99499.16;;;13.76;31.16
32875;BME280;40468;42.128;24.750;2023-02-22T03:31:39;99491.56;;;13.72;31.35
32875;BME280;40468;42.128;24.750;2023-02-22T03:33:13;99494.50;;;13.67;31.09
32875;BME280;40468;42.128;24.750;2023-02-22T03:34:50;99503.25;;;13.66;31.13
32875;BME280;40468;42.128;24.750;2023-02-22T03:36:24;99490.56;;;13.60;30.92
32875;BME280;40468;42.128;24.750;2023-02-22T03:37:57;99501.03;;;13.60;31.42
32875;BME280;40468;42.128;24.750;2023-02-22T03:39:30;99502.16;;;13.56;31.31
32875;BME280;40468;42.128;24.750;2023-02-22T03:41:04;99517.22;;;13.52;31.36
32875;BME280;40468;42.128;24.750;2023-02-22T03:42:38;99515.63;;;13.50;31.39
32875;BME280;40468;42.128;24.750;2023-02-22T03:44:10;99514.13;;;13.46;31.36
32875;BME280;40468;42.128;24.750;2023-02-22T03:45:44;99521.63;;;13.37;31.36
32875;BME280;40468;42.128;24.750;2023-02-22T03:47:17;99515.41;;;13.24;31.68
32875;BME280;40468;42.128;24.750;2023-02-22T03:48:52;99522.31;;;13.11;32.08
32875;BME280;40468;42.128;24.750;2023-02-22T03:50:27;99513.06;;;13.05;32.12
32875;BME280;40468;42.128;24.750;2023-02-22T03:52:00;99514.16;;;13.01;32.19
32875;BME280;40468;42.128;24.750;2023-02-22T03:53:32;99514.34;;;12.98;32.23
32875;BME280;40468;42.128;24.750;2023-02-22T03:55:06;99509.31;;;12.95;31.98
32875;BME280;40468;42.128;24.750;2023-02-22T03:56:41;99515.66;;;12.91;32.08
32875;BME280;40468;42.128;24.750;2023-02-22T03:58:16;99516.78;;;12.87;32.16
32875;BME280;40468;42.128;24.750;2023-02-22T03:59:48;99511.75;;;12.84;32.07
32875;BME280;40468;42.128;24.750;2023-02-22T04:01:19;99519.72;;;12.81;32.25
32875;BME280;40468;42.128;24.750;2023-02-22T04:02:52;99513.03;;;12.77;32.04
32875;BME280;40468;42.128;24.750;2023-02-22T04:04:24;99521.97;;;12.72;31.97
32875;BME280;40468;42.128;24.750;2023-02-22T04:05:56;99519.56;;;12.69;32.36
32875;BME280;40468;42.128;24.750;2023-02-22T04:07:29;99520.56;;;12.67;32.10
32875;BME280;40468;42.128;24.750;2023-02-22T04:09:01;99521.56;;;12.64;32.17
32875;BME280;40468;42.128;24.750;2023-02-22T04:10:32;99521.75;;;12.61;32.27
32875;BME280;40468;42.128;24.750;2023-02-22T04:12:03;99527.16;;;12.58;32.28
32875;BME280;40468;42.128;24.750;2023-02-22T04:13:35;99523.88;;;12.55;32.21
32875;BME280;40468;42.128;24.750;2023-02-22T04:15:07;99526.69;;;12.51;32.33
32875;BME280;40468;42.128;24.750;2023-02-22T04:16:38;99521.72;;;12.47;32.54
32875;BME280;40468;42.128;24.750;2023-02-22T04:18:10;99519.28;;;12.44;32.51
32875;BME280;40468;42.128;24.750;2023-02-22T04:19:40;99527.22;;;12.42;32.51
32875;BME280;40468;42.128;24.750;2023-02-22T04:21:14;99516.84;;;12.41;32.19
32875;BME280;40468;42.128;24.750;2023-02-22T04:22:47;99515.16;;;12.40;32.27
32875;BME280;40468;42.128;24.750;2023-02-22T04:24:18;99523.06;;;12.38;32.53
32875;BME280;40468;42.128;24.750;2023-02-22T04:25:50;99517.09;;;12.36;32.45
32875;BME280;40468;42.128;24.750;2023-02-22T04:27:21;99529.31;;;12.36;32.27
32875;BME280;40468;42.128;24.750;2023-02-22T04:28:53;99520.75;;;12.34;32.38
32875;BME280;40468;42.128;24.750;2023-02-22T04:30:24;99526.97;;;12.31;32.49
32875;BME280;40468;42.128;24.750;2023-02-22T04:31:55;99516.59;;;12.29;32.35
32875;BME280;40468;42.128;24.750;2023-02-22T04:33:27;99520.03;;;12.30;32.33
32875;BME280;40468;42.128;24.750;2023-02-22T04:34:58;99522.75;;;12.28;32.42
32875;BME280;40468;42.128;24.750;2023-02-22T04:36:30;99531.53;;;12.27;32.28
32875;BME280;40468;42.128;24.750;2023-02-22T04:38:03;99522.94;;;12.25;32.51
32875;BME280;40468;42.128;24.750;2023-02-22T04:39:35;99523.09;;;12.22;32.34
32875;BME280;40468;42.128;24.750;2023-02-22T04:41:06;99529.25;;;12.21;32.63
32875;BME280;40468;42.128;24.750;2023-02-22T04:42:38;99522.44;;;12.19;32.61
32875;BME280;40468;42.128;24.750;2023-02-22T04:44:10;99522.44;;;12.19;32.73
32875;BME280;40468;42.128;24.750;2023-02-22T04:45:41;99519.06;;;12.17;32.74
32875;BME280;40468;42.128;24.750;2023-02-22T04:47:12;99520.00;;;12.16;32.52
32875;BME280;40468;42.128;24.750;2023-02-22T04:48:44;99515.81;;;12.13;32.47
32875;BME280;40468;42.128;24.750;2023-02-22T04:50:15;99524.53;;;12.12;32.57
32875;BME280;40468;42.128;24.750;2023-02-22T04:51:46;99521.84;;;12.14;32.51
32875;BME280;40468;42.128;24.750;2023-02-22T04:53:19;99521.84;;;12.14;32.58
32875;BME280;40468;42.128;24.750;2023-02-22T04:54:50;99522.78;;;12.13;32.72
32875;BME280;40468;42.128;24.750;2023-02-22T04:56:21;99514.19;;;12.11;32.64
32875;BME280;40468;42.128;24.750;2023-02-22T04:57:53;99520.31;;;12.10;32.61
32875;BME280;40468;42.128;24.750;2023-02-22T04:59:24;99510.81;;;12.09;32.88
32875;BME280;40468;42.128;24.750;2023-02-22T05:00:55;99515.22;;;12.08;32.63
32875;BME280;40468;42.128;24.750;2023-02-22T05:02:27;99514.38;;;12.07;32.97
32875;BME280;40468;42.128;24.750;2023-02-22T05:03:57;99516.16;;;12.07;32.92
32875;BME280;40468;42.128;24.750;2023-02-22T05:05:29;99512.84;;;12.03;32.85
32875;BME280;40468;42.128;24.750;2023-02-22T05:07:01;99513.59;;;12.05;32.65
32875;BME280;40468;42.128;24.750;2023-02-22T05:08:34;99510.94;;;12.07;32.88
32875;BME280;40468;42.128;24.750;2023-02-22T05:10:05;99522.19;;;12.07;32.99
32875;BME280;40468;42.128;24.750;2023-02-22T05:11:37;99518.66;;;12.09;32.65
32875;BME280;40468;42.128;24.750;2023-02-22T05:13:09;99513.44;;;12.09;32.75
32875;BME280;40468;42.128;24.750;2023-02-22T05:14:41;99521.19;;;12.10;32.80
32875;BME280;40468;42.128;24.750;2023-02-22T05:16:13;99521.94;;;12.12;32.88
32875;BME280;40468;42.128;24.750;2023-02-22T05:17:44;99516.63;;;12.14;32.86
32875;BME280;40468;42.128;24.750;2023-02-22T05:19:16;99520.91;;;12.15;32.65
32875;BME280;40468;42.128;24.750;2023-02-22T05:20:47;99518.13;;;12.18;32.81
32875;BME280;40468;42.128;24.750;2023-02-22T05:22:19;99524.97;;;12.20;32.86
32875;BME280;40468;42.128;24.750;2023-02-22T05:23:52;99518.72;;;12.23;32.75
32875;BME280;40468;42.128;24.750;2023-02-22T05:25:22;99527.22;;;12.26;32.74
32875;BME280;40468;42.128;24.750;2023-02-22T05:26:54;99527.88;;;12.30;32.77
32875;BME280;40468;42.128;24.750;2023-02-22T05:28:25;99527.72;;;12.33;32.61
32875;BME280;40468;42.128;24.750;2023-02-22T05:29:56;99535.28;;;12.38;32.59
32875;BME280;40468;42.128;24.750;2023-02-22T05:31:28;99522.72;;;12.44;32.45
32875;BME280;40468;42.128;24.750;2023-02-22T05:33:00;99528.53;;;12.49;32.45
32875;BME280;40468;42.128;24.750;2023-02-22T05:34:32;99535.06;;;12.57;32.55
32875;BME280;40468;42.128;24.750;2023-02-22T05:36:03;99533.97;;;12.61;32.45
32875;BME280;40468;42.128;24.750;2023-02-22T05:37:36;99527.56;;;12.66;32.20
32875;BME280;40468;42.128;24.750;2023-02-22T05:39:09;99531.59;;;12.72;32.39
32875;BME280;40468;42.128;24.750;2023-02-22T05:40:41;99533.91;;;12.77;32.40
32875;BME280;40468;42.128;24.750;2023-02-22T05:42:13;99519.09;;;12.77;32.00
32875;BME280;40468;42.128;24.750;2023-02-22T05:43:45;99528.16;;;12.86;32.34
32875;BME280;40468;42.128;24.750;2023-02-22T05:45:17;99537.41;;;12.91;32.32
32875;BME280;40468;42.128;24.750;2023-02-22T05:46:49;99527.59;;;12.95;31.95
32875;BME280;40468;42.128;24.750;2023-02-22T05:48:20;99527.34;;;13.00;32.28
32875;BME280;40468;42.128;24.750;2023-02-22T05:49:52;99535.75;;;13.05;32.11
32875;BME280;40468;42.128;24.750;2023-02-22T05:51:23;99533.81;;;13.08;32.15
32875;BME280;40468;42.128;24.750;2023-02-22T05:52:54;99537.06;;;13.12;31.89
32875;BME280;40468;42.128;24.750;2023-02-22T05:54:28;99537.81;;;13.14;32.07
32875;BME280;40468;42.128;24.750;2023-02-22T05:55:59;99541.94;;;13.18;32.03
32875;BME280;40468;42.128;24.750;2023-02-22T05:57:31;99539.13;;;13.21;32.00
32875;BME280;40468;42.128;24.750;2023-02-22T05:59:02;99539.06;;;13.23;31.91
32875;BME280;40468;42.128;24.750;2023-02-22T06:00:34;99538.06;;;13.25;32.00
32875;BME280;40468;42.128;24.750;2023-02-22T06:02:06;99543.00;;;13.30;31.85
32875;BME280;40468;42.128;24.750;2023-02-22T06:03:37;99545.34;;;13.34;31.85
32875;BME280;40468;42.128;24.750;2023-02-22T06:05:09;99544.31;;;13.37;31.75
32875;BME280;40468;42.128;24.750;2023-02-22T06:06:39;99546.75;;;13.40;31.78
32875;BME280;40468;42.128;24.750;2023-02-22T06:08:11;99549.19;;;13.43;31.77
32875;BME280;40468;42.128;24.750;2023-02-22T06:09:44;99557.75;;;13.45;31.71
32875;BME280;40468;42.128;24.750;2023-02-22T06:11:15;99561.97;;;13.48;31.74
32875;BME280;40468;42.128;24.750;2023-02-22T06:12:48;99554.03;;;13.49;31.94
32875;BME280;40468;42.128;24.750;2023-02-22T06:14:20;99561.03;;;13.49;32.03
32875;BME280;40468;42.128;24.750;2023-02-22T06:15:53;99560.09;;;13.50;31.85
32875;BME280;40468;42.128;24.750;2023-02-22T06:17:25;99562.72;;;13.50;32.10
32875;BME280;40468;42.128;24.750;2023-02-22T06:18:56;99560.09;;;13.50;32.00
32875;BME280;40468;42.128;24.750;2023-02-22T06:20:29;99560.09;;;13.50;32.27
32875;BME280;40468;42.128;24.750;2023-02-22T06:22:02;99557.56;;;13.48;32.25
32875;BME280;40468;42.128;24.750;2023-02-22T06:23:34;99558.31;;;13.50;32.20
32875;BME280;40468;42.128;24.750;2023-02-22T06:25:06;99559.06;;;13.52;32.14
32875;BME280;40468;42.128;24.750;2023-02-22T06:26:39;99559.91;;;13.53;32.10
32875;BME280;40468;42.128;24.750;2023-02-22T06:28:10;99561.59;;;13.54;32.39
32875;BME280;40468;42.128;24.750;2023-02-22T06:29:43;99558.88;;;13.55;32.41
32875;BME280;40468;42.128;24.750;2023-02-22T06:31:15;99560.38;;;13.59;32.31
32875;BME280;40468;42.128;24.750;2023-02-22T06:32:46;99561.84;;;13.63;32.32
32875;BME280;40468;42.128;24.750;2023-02-22T06:34:18;99563.25;;;13.69;32.45
32875;BME280;40468;42.128;24.750;2023-02-22T06:35:50;99561.31;;;13.73;32.36
32875;BME280;40468;42.128;24.750;2023-02-22T06:37:22;99565.41;;;13.77;32.28
32875;BME280;40468;42.128;24.750;2023-02-22T06:38:54;99564.19;;;13.82;31.99
32875;BME280;40468;42.128;24.750;2023-02-22T06:40:28;99564.06;;;13.84;32.22
32875;BME280;40468;42.128;24.750;2023-02-22T06:41:59;99564.75;;;13.87;31.89
32875;BME280;40468;42.128;24.750;2023-02-22T06:43:31;99571.66;;;13.88;32.05
32875;BME280;40468;42.128;24.750;2023-02-22T06:45:02;99570.81;;;13.88;32.01
32875;BME280;40468;42.128;24.750;2023-02-22T06:46:34;99569.03;;;13.88;31.96
32875;BME280;40468;42.128;24.750;2023-02-22T06:48:06;99575.75;;;13.93;32.16
32875;BME280;40468;42.128;24.750;2023-02-22T06:49:38;99578.28;;;13.94;31.96
32875;BME280;40468;42.128;24.750;2023-02-22T06:51:09;99580.72;;;13.97;32.08
32875;BME280;40468;42.128;24.750;2023-02-22T06:52:41;99577.78;;;14.02;32.08
32875;BME280;40468;42.128;24.750;2023-02-22T06:54:13;99582.47;;;14.11;32.29
32875;BME280;40468;42.128;24.750;2023-02-22T06:55:46;99582.22;;;14.28;32.01
32875;BME280;40468;42.128;24.750;2023-02-22T06:57:18;99578.31;;;14.48;31.88
32875;BME280;40468;42.128;24.750;2023-02-22T06:58:49;99578.66;;;14.71;32.05
32875;BME280;40468;42.128;24.750;2023-02-22T07:00:22;99579.44;;;14.98;31.93
32875;BME280;40468;42.128;24.750;2023-02-22T07:01:54;99579.66;;;15.34;31.67
32875;BME280;40468;42.128;24.750;2023-02-22T07:03:25;99574.56;;;15.71;31.49
32875;BME280;40468;42.128;24.750;2023-02-22T07:04:57;99579.28;;;16.15;31.14
32875;BME280;40468;42.128;24.750;2023-02-22T07:06:29;99574.53;;;16.68;31.02
32875;BME280;40468;42.128;24.750;2023-02-22T07:08:01;99569.22;;;17.27;30.88
32875;BME280;40468;42.128;24.750;2023-02-22T07:09:33;99574.50;;;17.95;30.14
32875;BME280;40468;42.128;24.750;2023-02-22T07:11:06;99568.56;;;18.57;29.69
32875;BME280;40468;42.128;24.750;2023-02-22T07:12:38;99568.22;;;19.15;28.90
32875;BME280;40468;42.128;24.750;2023-02-22T07:14:10;99564.97;;;19.63;28.24
32875;BME280;40468;42.128;24.750;2023-02-22T07:15:41;99573.38;;;20.09;27.82
32875;BME280;40468;42.128;24.750;2023-02-22T07:17:13;99569.81;;;20.58;27.53
32875;BME280;40468;42.128;24.750;2023-02-22T07:18:44;99564.94;;;21.12;26.97
32875;BME280;40468;42.128;24.750;2023-02-22T07:20:16;99565.69;;;21.79;26.65
32875;BME280;40468;42.128;24.750;2023-02-22T07:21:49;99564.78;;;22.43;25.83
32875;BME280;40468;42.128;24.750;2023-02-22T07:23:28;99562.00;;;23.07;25.31
32875;BME280;40468;42.128;24.750;2023-02-22T07:24:59;99575.25;;;23.51;24.59
32875;BME280;40468;42.128;24.750;2023-02-22T07:26:33;99571.47;;;23.88;24.05
32875;BME280;40468;42.128;24.750;2023-02-22T07:28:08;99568.59;;;24.23;23.78
32875;BME280;40468;42.128;24.750;2023-02-22T07:29:41;99564.34;;;24.55;23.02
32875;BME280;40468;42.128;24.750;2023-02-22T07:31:13;99570.84;;;24.85;22.95
32875;BME280;40468;42.128;24.750;2023-02-22T07:32:45;99563.81;;;25.25;22.59
32875;BME280;40468;42.128;24.750;2023-02-22T07:34:16;99562.06;;;25.65;22.45
32875;BME280;40468;42.128;24.750;2023-02-22T07:35:48;99563.47;;;25.92;22.07
32875;BME280;40468;42.128;24.750;2023-02-22T07:37:19;99555.97;;;26.27;21.73
32875;BME280;40468;42.128;24.750;2023-02-22T07:38:51;99557.78;;;26.58;21.57
32875;BME280;40468;42.128;24.750;2023-02-22T07:40:23;99553.50;;;26.71;21.53
32875;BME280;40468;42.128;24.750;2023-02-22T07:41:56;99550.69;;;26.88;20.70
32875;BME280;40468;42.128;24.750;2023-02-22T07:43:28;99547.88;;;27.04;20.52
32875;BME280;40468;42.128;24.750;2023-02-22T07:45:00;99556.50;;;27.06;20.57
32875;BME280;40468;42.128;24.750;2023-02-22T07:46:32;99548.03;;;26.65;20.70
32875;BME280;40468;42.128;24.750;2023-02-22T07:48:04;99547.94;;;26.27;20.57
32875;BME280;40468;42.128;24.750;2023-02-22T07:49:36;99554.94;;;25.97;20.92
32875;BME280;40468;42.128;24.750;2023-02-22T07:51:07;99547.03;;;25.72;20.90
32875;BME280;40468;42.128;24.750;2023-02-22T07:52:39;99548.50;;;25.35;20.60
32875;BME280;40468;42.128;24.750;2023-02-22T07:54:14;99552.34;;;24.92;20.82
32875;BME280;40468;42.128;24.750;2023-02-22T07:55:46;99552.03;;;24.54;21.19
32875;BME280;40468;42.128;24.750;2023-02-22T07:57:21;99546.66;;;24.38;21.54
32875;BME280;40468;42.128;24.750;2023-02-22T07:58:53;99547.69;;;24.45;21.68
32875;BME280;40468;42.128;24.750;2023-02-22T08:00:26;99545.88;;;24.86;21.26
32875;BME280;40468;42.128;24.750;2023-02-22T08:01:58;99545.84;;;25.83;20.54
32875;BME280;40468;42.128;24.750;2023-02-22T08:03:30;99538.44;;;26.93;19.72
32875;BME280;40468;42.128;24.750;2023-02-22T08:05:04;99541.34;;;27.96;19.02
32875;BME280;40468;42.128;24.750;2023-02-22T08:06:36;99535.78;;;28.76;18.42
32875;BME280;40468;42.128;24.750;2023-02-22T08:08:07;99533.97;;;29.40;17.33